Time;durP1;ratioP1;P1;durP2;ratioP2;P2;SDS_P1;SDS_P2;PMS_P1;PMS_P2;Temp;Humidity;BMP_temperature;BMP_pressure;BME280_temperature;BME280_humidity;BME280_pressure;Samples;Min_cycle;Max_cycle;Signal;HPM_P1;HPM_P2
2023/02/27 00:02:18;;;;;;;8.30;4.80;;;;;;;-1.79;78.45;102016.31;5046741;28;20244;-73
2023/02/27 00:04:44;;;;;;;9.03;5.03;;;;;;;-1.80;78.35;102024.16;5047774;28;20232;-72
2023/02/27 00:07:12;;;;;;;6.20;4.07;;;;;;;-1.82;78.57;102023.25;5051692;28;20200;-72
2023/02/27 00:09:40;;;;;;;5.87;4.50;;;;;;;-1.85;79.12;102024.09;5057160;28;20200;-72
2023/02/27 00:12:08;;;;;;;6.40;4.20;;;;;;;-1.87;78.82;102019.72;5047965;28;20233;-70
2023/02/27 00:14:34;;;;;;;6.87;4.63;;;;;;;-1.90;78.82;102019.69;5048766;28;20205;-73
2023/02/27 00:17:01;;;;;;;5.70;4.27;;;;;;;-1.91;79.08;102021.44;5044489;28;20237;-71
2023/02/27 00:19:27;;;;;;;6.97;4.23;;;;;;;-1.95;79.22;102024.00;5047294;28;20929;-72
2023/02/27 00:21:54;;;;;;;5.47;4.33;;;;;;;-1.98;79.23;102018.75;5041814;28;20230;-71
2023/02/27 00:24:22;;;;;;;6.57;4.33;;;;;;;-2.04;79.24;102018.69;5048084;28;20205;-72
2023/02/27 00:26:48;;;;;;;6.50;4.10;;;;;;;-2.08;79.77;102019.50;5043754;28;20728;-71
2023/02/27 00:29:15;;;;;;;4.97;3.53;;;;;;;-2.14;79.50;102017.69;5043863;28;20213;-72
2023/02/27 00:31:41;;;;;;;5.47;3.73;;;;;;;-2.19;80.02;102024.63;5043918;28;20236;-72
2023/02/27 00:34:08;;;;;;;7.27;3.13;;;;;;;-2.23;79.89;102023.72;5043680;28;20205;-72
2023/02/27 00:36:35;;;;;;;5.63;3.13;;;;;;;-2.25;80.06;102024.56;5043523;28;20871;-72
2023/02/27 00:39:02;;;;;;;4.73;3.63;;;;;;;-2.27;80.28;102029.75;5046297;28;20627;-72
2023/02/27 00:41:30;;;;;;;5.30;3.90;;;;;;;-2.29;80.49;102025.38;5037034;28;20704;-72
2023/02/27 00:43:56;;;;;;;6.90;4.37;;;;;;;-2.29;80.95;102026.25;5037625;28;20209;-72
2023/02/27 00:46:22;;;;;;;8.07;4.17;;;;;;;-2.31;80.97;102020.13;5037342;28;20250;-72
2023/02/27 00:48:49;;;;;;;8.10;3.87;;;;;;;-2.32;80.97;102018.38;5034575;28;20213;-72
2023/02/27 00:51:15;;;;;;;6.70;4.57;;;;;;;-2.33;80.82;102021.84;5039370;28;20449;-72
2023/02/27 00:53:42;;;;;;;6.80;4.33;;;;;;;-2.35;80.99;102015.78;5039176;28;20201;-75
2023/02/27 00:56:08;;;;;;;5.20;3.53;;;;;;;-2.35;81.32;102017.50;5042993;28;20226;-71
2023/02/27 00:58:36;;;;;;;4.30;3.73;;;;;;;-2.37;81.70;102017.47;5036939;28;20206;-71
2023/02/27 01:01:02;;;;;;;5.90;3.67;;;;;;;-2.38;81.11;102014.84;5035841;28;20336;-72
2023/02/27 01:03:29;;;;;;;5.67;3.43;;;;;;;-2.39;81.75;102021.81;5040520;28;20228;-72
2023/02/27 01:05:57;;;;;;;8.53;3.73;;;;;;;-2.40;81.52;102020.06;5045133;28;20206;-72
2023/02/27 01:08:23;;;;;;;5.17;3.83;;;;;;;-2.41;81.98;102018.28;5044121;28;20204;-73
2023/02/27 01:10:49;;;;;;;5.97;3.80;;;;;;;-2.42;81.94;102015.66;5043692;28;20288;-71
2023/02/27 01:13:16;;;;;;;5.27;3.37;;;;;;;-2.45;81.85;102012.16;5038430;28;20249;-72
2023/02/27 01:15:44;;;;;;;5.70;3.77;;;;;;;-2.46;81.75;102018.22;5041167;28;20619;-71
2023/02/27 01:18:10;;;;;;;4.67;3.60;;;;;;;-2.48;82.19;102016.47;5038725;28;20552;-70
2023/02/27 01:20:37;;;;;;;5.87;3.83;;;;;;;-2.50;82.13;102013.81;5039945;28;20216;-72
2023/02/27 01:23:03;;;;;;;6.20;3.63;;;;;;;-2.52;82.24;102014.69;5040257;28;20237;-72
2023/02/27 01:25:30;;;;;;;5.10;3.10;;;;;;;-2.55;82.35;102015.53;5037807;28;20214;-71
2023/02/27 01:27:56;;;;;;;4.30;3.23;;;;;;;-2.57;82.27;102017.25;5043721;28;20206;-73
2023/02/27 01:30:23;;;;;;;7.80;4.10;;;;;;;-2.60;82.83;102019.81;5040062;28;20213;-73
2023/02/27 01:32:50;;;;;;;4.53;3.20;;;;;;;-2.61;82.72;102022.41;5036973;28;20237;-72
2023/02/27 01:35:17;;;;;;;4.30;3.17;;;;;;;-2.64;82.70;102015.41;5045847;28;20211;-72
2023/02/27 01:37:44;;;;;;;5.10;3.10;;;;;;;-2.65;83.07;102016.25;5044198;28;21152;-72
2023/02/27 01:40:11;;;;;;;5.13;2.83;;;;;;;-2.66;83.06;102013.63;5044756;28;20213;-72
2023/02/27 01:42:38;;;;;;;4.67;3.07;;;;;;;-2.68;83.45;102008.38;5039714;28;20221;-72
2023/02/27 01:45:27;;;;;;;4.67;3.00;;;;;;;-2.69;83.16;102011.88;5042160;28;20205;-73
2023/02/27 01:48:03;;;;;;;5.67;3.30;;;;;;;-2.70;83.64;102015.34;5030237;28;20205;-74
2023/02/27 01:50:31;;;;;;;7.63;3.40;;;;;;;-2.72;83.38;102021.41;5034833;28;20276;-72
2023/02/27 01:53:01;;;;;;;6.60;3.43;;;;;;;-2.72;83.90;102022.28;5037302;28;20491;-71
2023/02/27 01:55:30;;;;;;;6.13;3.07;;;;;;;-2.74;83.72;102020.50;5043412;28;20522;-74
2023/02/27 01:57:57;;;;;;;5.03;2.80;;;;;;;-2.76;84.00;102015.25;5038540;28;20201;-71
2023/02/27 02:00:24;;;;;;;5.13;2.70;;;;;;;-2.76;84.15;102019.59;5046267;28;20802;-72
2023/02/27 02:02:59;;;;;;;5.20;2.90;;;;;;;-2.80;84.53;102009.13;5043564;28;20682;-75
2023/02/27 02:05:26;;;;;;;4.50;3.23;;;;;;;-2.82;84.23;102021.25;5040049;28;20225;-71
2023/02/27 02:07:53;;;;;;;4.93;2.97;;;;;;;-2.84;84.05;102020.34;5036052;28;20579;-74
2023/02/27 02:10:21;;;;;;;4.13;2.73;;;;;;;-2.89;84.11;102016.84;5046031;28;20201;-71
2023/02/27 02:12:48;;;;;;;3.20;2.43;;;;;;;-2.94;83.79;102026.31;5044951;28;20221;-75
2023/02/27 02:15:15;;;;;;;3.63;2.33;;;;;;;-2.98;83.90;102027.13;5036262;28;20685;-72
2023/02/27 02:17:50;;;;;;;6.20;2.60;;;;;;;-3.03;83.84;102022.69;5037979;28;20230;-71
2023/02/27 02:21:02;;;;;;;4.57;2.63;;;;;;;-3.07;84.26;102029.63;5036125;28;20311;-74
2023/02/27 02:24:00;;;;;;;5.50;2.50;;;;;;;-3.10;84.32;102029.56;5035893;28;20703;-72
2023/02/27 02:26:39;;;;;;;4.90;2.77;;;;;;;-3.16;84.32;102026.88;5039954;28;20205;-72
2023/02/27 02:29:54;;;;;;;4.97;2.97;;;;;;;-3.21;84.33;102025.91;5037100;28;20669;-72
2023/02/27 02:33:00;;;;;;;6.10;2.30;;;;;;;-3.26;84.47;102022.38;5035192;28;20647;-72
2023/02/27 02:35:57;;;;;;;4.90;2.67;;;;;;;-3.30;84.69;102031.00;5044030;28;20201;-72
2023/02/27 02:38:49;;;;;;;3.40;2.30;;;;;;;-3.31;84.38;102022.31;5038215;28;20744;-72
2023/02/27 02:41:22;;;;;;;3.83;2.57;;;;;;;-3.34;84.58;102023.97;5036278;28;20213;-72
2023/02/27 02:44:00;;;;;;;3.40;2.50;;;;;;;-3.36;84.89;102028.28;5048482;28;20205;-74
2023/02/27 02:46:34;;;;;;;5.57;2.63;;;;;;;-3.39;84.95;102025.63;5044869;28;20209;-73
2023/02/27 02:49:06;;;;;;;4.63;3.00;;;;;;;-3.39;84.94;102021.31;5049440;28;20209;-72
2023/02/27 02:51:39;;;;;;;3.87;2.80;;;;;;;-3.38;85.21;102025.66;5033481;28;20249;-72
2023/02/27 02:54:12;;;;;;;6.53;3.03;;;;;;;-3.37;85.43;102018.72;5043170;28;20209;-72
2023/02/27 02:56:42;;;;;;;7.30;3.90;;;;;;;-3.36;85.77;102020.47;5037101;28;20237;-71
2023/02/27 02:59:14;;;;;;;6.53;3.80;;;;;;;-3.35;85.67;102022.22;5041956;28;20614;-72
2023/02/27 03:01:45;;;;;;;6.40;3.80;;;;;;;-3.34;85.71;102013.56;5045078;28;20228;-72
2023/02/27 03:04:15;;;;;;;6.67;4.20;;;;;;;-3.32;85.88;102014.47;5041356;28;20613;-72
2023/02/27 03:06:47;;;;;;;6.57;3.93;;;;;;;-3.31;86.32;102013.63;5044378;28;20197;-72
2023/02/27 03:09:21;;;;;;;6.10;3.63;;;;;;;-3.28;86.79;102016.28;5046165;28;20208;-73
2023/02/27 03:11:50;;;;;;;5.97;4.00;;;;;;;-3.27;87.09;102018.03;5048309;28;20244;-72
2023/02/27 03:14:21;;;;;;;8.67;4.37;;;;;;;-3.26;87.23;102019.78;5043303;28;20212;-72
2023/02/27 03:16:52;;;;;;;6.23;3.80;;;;;;;-3.25;86.88;102018.94;5050308;28;20229;-71
2023/02/27 03:19:22;;;;;;;6.30;4.07;;;;;;;-3.25;87.27;102025.00;5046463;28;20224;-73
2023/02/27 03:21:55;;;;;;;5.67;4.07;;;;;;;-3.25;87.23;102026.75;5050305;28;20230;-73
2023/02/27 03:24:26;;;;;;;7.57;4.10;;;;;;;-3.27;87.26;102026.72;5045789;28;20633;-71
2023/02/27 03:26:58;;;;;;;7.20;4.03;;;;;;;-3.30;87.25;102023.19;5046503;28;20204;-70
2023/02/27 03:29:33;;;;;;;6.37;4.57;;;;;;;-3.35;87.12;102032.66;5045486;28;20205;-72
2023/02/27 03:32:04;;;;;;;9.00;5.70;;;;;;;-3.38;87.37;102037.81;5042564;28;20229;-72
2023/02/27 03:34:34;;;;;;;7.43;6.07;;;;;;;-3.42;86.95;102038.63;5041860;28;20221;-72
2023/02/27 03:37:05;;;;;;;10.17;6.17;;;;;;;-3.46;87.25;102037.69;5040672;28;20225;-72
2023/02/27 03:39:40;;;;;;;11.27;7.17;;;;;;;-3.50;86.98;102038.50;5047146;28;20636;-73
2023/02/27 03:42:15;;;;;;;9.97;7.00;;;;;;;-3.54;87.23;102036.69;5044165;28;20232;-70
2023/02/27 03:44:55;;;;;;;11.83;6.63;;;;;;;-3.55;87.31;102041.00;5043001;28;20205;-71
2023/02/27 03:47:22;;;;;;;8.53;6.27;;;;;;;-3.58;87.38;102034.88;5039482;28;20209;-70
2023/02/27 03:49:50;;;;;;;10.07;6.43;;;;;;;-3.58;87.40;102037.47;5040761;28;20292;-72
2023/02/27 03:52:18;;;;;;;7.30;5.47;;;;;;;-3.60;87.47;102042.69;5041565;28;20261;-70
2023/02/27 03:54:52;;;;;;;6.07;5.43;;;;;;;-3.61;87.48;102040.94;5041973;28;20202;-71
2023/02/27 03:57:19;;;;;;;6.80;5.10;;;;;;;-3.64;87.48;102043.47;5039086;28;20221;-71
2023/02/27 03:59:46;;;;;;;8.87;5.97;;;;;;;-3.65;87.90;102052.16;5043581;28;20205;-70
2023/02/27 04:02:12;;;;;;;5.77;3.77;;;;;;;-3.65;87.72;102059.06;5048213;28;20225;-71
2023/02/27 04:04:39;;;;;;;4.67;3.87;;;;;;;-3.69;87.81;102058.16;5046406;28;20217;-72
2023/02/27 04:07:23;;;;;;;7.50;4.40;;;;;;;-3.70;87.47;102055.50;5045191;28;20558;-71
2023/02/27 04:10:28;;;;;;;7.30;4.03;;;;;;;-3.71;87.94;102058.97;5043166;28;20205;-70
2023/02/27 04:13:16;;;;;;;6.30;4.03;;;;;;;-3.74;87.91;102058.91;5025076;28;20225;-72
2023/02/27 04:15:59;;;;;;;6.20;4.70;;;;;;;-3.76;87.85;102066.69;5047176;28;20728;-72
2023/02/27 04:18:41;;;;;;;6.17;4.83;;;;;;;-3.77;87.90;102061.47;5042072;28;20826;-71
2023/02/27 04:21:11;;;;;;;8.40;5.07;;;;;;;-3.80;87.94;102070.09;5043457;28;20589;-71
2023/02/27 04:23:41;;;;;;;6.87;4.07;;;;;;;-3.82;87.79;102071.81;5042639;28;20201;-70
2023/02/27 04:26:19;;;;;;;5.83;4.30;;;;;;;-3.83;87.81;102064.84;5044672;28;20692;-73
2023/02/27 04:28:53;;;;;;;6.47;4.80;;;;;;;-3.84;87.95;102070.91;5044221;28;20209;-70
2023/02/27 04:31:24;;;;;;;6.00;4.33;;;;;;;-3.86;87.95;102070.00;5036542;28;20764;-71
2023/02/27 04:33:59;;;;;;;5.10;3.93;;;;;;;-3.88;88.15;102074.28;5045407;28;20220;-72
2023/02/27 04:36:30;;;;;;;5.77;4.03;;;;;;;-3.90;87.83;102070.78;5041745;28;20209;-70
2023/02/27 04:39:04;;;;;;;7.07;4.67;;;;;;;-3.91;88.30;102082.03;5040357;28;20208;-71
2023/02/27 04:41:39;;;;;;;5.17;4.03;;;;;;;-3.92;88.20;102082.88;5040903;28;20237;-70
2023/02/27 04:44:08;;;;;;;4.30;3.70;;;;;;;-3.94;88.42;102075.03;5042888;28;20209;-71
2023/02/27 04:46:38;;;;;;;9.57;4.50;;;;;;;-3.95;88.22;102080.25;5048776;28;20233;-72
2023/02/27 04:49:11;;;;;;;6.57;3.70;;;;;;;-3.97;88.18;102081.94;5041479;28;20672;-75
2023/02/27 04:51:47;;;;;;;4.27;3.43;;;;;;;-3.99;88.38;102089.72;5051335;22;20240;-84
2023/02/27 04:54:16;;;;;;;4.40;3.50;;;;;;;-4.01;88.31;102085.31;5007783;28;20218;-86
2023/02/27 04:56:51;;;;;;;4.70;3.33;;;;;;;-4.04;88.15;102080.06;5006122;28;20262;-85
2023/02/27 04:59:22;;;;;;;7.37;3.73;;;;;;;-4.09;88.07;102082.56;4983951;28;20416;-84
2023/02/27 05:01:57;;;;;;;6.60;3.70;;;;;;;-4.11;88.50;102075.56;4982535;28;20763;-85
2023/02/27 05:04:26;;;;;;;3.63;3.20;;;;;;;-4.12;88.17;102073.84;4979203;28;20462;-85
2023/02/27 05:06:55;;;;;;;5.37;3.73;;;;;;;-4.14;88.28;102079.03;4977318;28;20370;-84
2023/02/27 05:09:31;;;;;;;5.17;3.83;;;;;;;-4.15;88.33;102079.84;4980052;28;20226;-84
2023/02/27 05:12:01;;;;;;;7.40;3.50;;;;;;;-4.17;88.47;102078.06;4985194;28;20204;-84
2023/02/27 05:14:32;;;;;;;4.77;3.73;;;;;;;-4.19;88.38;102075.44;4987875;28;20233;-85
2023/02/27 05:17:04;;;;;;;5.17;3.77;;;;;;;-4.21;88.62;102080.59;4991934;28;20246;-85
2023/02/27 05:19:32;;;;;;;6.97;4.13;;;;;;;-4.20;88.79;102091.91;4985905;28;20203;-85
2023/02/27 05:22:10;;;;;;;6.03;3.57;;;;;;;-4.18;88.88;102095.41;4985815;28;20208;-84
2023/02/27 05:24:47;;;;;;;6.37;3.77;;;;;;;-4.17;89.22;102088.47;4987477;28;20211;-85
2023/02/27 05:27:23;;;;;;;7.97;4.37;;;;;;;-4.15;89.32;102097.19;4988462;28;20223;-85
2023/02/27 05:29:52;;;;;;;5.83;4.33;;;;;;;-4.15;89.40;102087.66;4993221;28;20605;-85
2023/02/27 05:32:32;;;;;;;5.07;4.20;;;;;;;-4.13;89.54;102095.50;4983186;28;20217;-85
2023/02/27 05:35:07;;;;;;;5.70;4.10;;;;;;;-4.13;89.61;102098.09;4986143;28;20724;-85
2023/02/27 05:37:42;;;;;;;6.77;3.43;;;;;;;-4.18;89.52;102092.81;4980898;28;20228;-85
2023/02/27 05:40:11;;;;;;;6.83;4.07;;;;;;;-4.23;89.55;102100.50;4981792;28;20203;-85
2023/02/27 05:42:44;;;;;;;5.23;3.77;;;;;;;-4.26;89.44;102100.44;4980678;28;20211;-85
2023/02/27 05:45:15;;;;;;;6.83;4.37;;;;;;;-4.29;89.91;102104.69;4986396;28;20203;-84
2023/02/27 05:47:46;;;;;;;8.50;4.47;;;;;;;-4.33;89.98;102098.59;4997740;28;20238;-83
2023/02/27 05:50:16;;;;;;;8.90;4.10;;;;;;;-4.33;89.97;102105.50;4998485;28;20207;-85
2023/02/27 05:52:44;;;;;;;5.57;4.07;;;;;;;-4.36;89.84;102108.91;4992255;28;20208;-85
2023/02/27 05:55:18;;;;;;;6.60;4.37;;;;;;;-4.40;90.35;102107.09;4992806;28;20379;-84
2023/02/27 05:57:51;;;;;;;6.33;3.87;;;;;;;-4.39;90.50;102108.84;4980660;28;20743;-86
2023/02/27 06:00:23;;;;;;;5.30;4.23;;;;;;;-4.39;90.24;102111.44;4975684;28;20188;-86
2023/02/27 06:02:50;;;;;;;8.70;4.50;;;;;;;-4.35;90.99;102121.06;4979440;28;20196;-84
2023/02/27 06:05:19;;;;;;;7.70;4.43;;;;;;;-4.30;91.01;102129.81;4974169;28;20212;-84
2023/02/27 06:07:45;;;;;;;6.43;4.27;;;;;;;-4.24;91.39;102129.97;4991411;28;20228;-85
2023/02/27 06:10:15;;;;;;;8.47;4.23;;;;;;;-4.19;91.55;102127.47;4992350;28;20459;-86
2023/02/27 06:12:42;;;;;;;7.53;5.07;;;;;;;-4.14;91.89;102125.84;4993057;28;20211;-87
2023/02/27 06:15:11;;;;;;;6.97;4.43;;;;;;;-4.09;92.12;102133.72;4994797;28;20208;-86
2023/02/27 06:17:38;;;;;;;11.43;5.30;;;;;;;-4.03;92.69;102136.44;4995651;28;20231;-84
2023/02/27 06:20:06;;;;;;;10.77;5.70;;;;;;;-3.99;92.78;102141.75;4996768;28;20212;-86
2023/02/27 06:22:33;;;;;;;12.20;5.73;;;;;;;-3.93;92.99;102133.16;4990532;28;21627;-82
2023/02/27 06:24:59;;;;;;;10.30;5.57;;;;;;;-3.87;93.36;102139.38;4993512;28;20206;-82
2023/02/27 06:27:26;;;;;;;8.07;5.13;;;;;;;-3.82;94.02;102138.59;4994253;28;20232;-83
2023/02/27 06:29:53;;;;;;;6.87;5.47;;;;;;;-3.75;94.19;102141.31;4997036;28;20211;-83
2023/02/27 06:32:24;;;;;;;10.80;5.63;;;;;;;-3.70;94.32;102142.31;4996825;28;20266;-84
2023/02/27 06:34:50;;;;;;;8.50;6.33;;;;;;;-3.64;94.66;102149.34;4997777;28;20707;-83
2023/02/27 06:37:17;;;;;;;11.97;5.33;;;;;;;-3.60;95.07;102144.25;4996381;28;20232;-83
2023/02/27 06:39:43;;;;;;;7.67;5.13;;;;;;;-3.55;95.79;102150.38;4997045;28;20662;-83
2023/02/27 06:42:10;;;;;;;9.97;5.90;;;;;;;-3.51;95.60;102144.41;4996528;28;20208;-83
2023/02/27 06:44:36;;;;;;;6.83;5.07;;;;;;;-3.43;96.11;102146.28;4996047;28;20226;-83
2023/02/27 06:47:02;;;;;;;6.90;4.83;;;;;;;-3.39;95.94;102148.06;4995619;28;20869;-83
2023/02/27 06:49:30;;;;;;;6.67;4.77;;;;;;;-3.34;96.43;102154.22;4995860;28;20815;-83
2023/02/27 06:51:57;;;;;;;6.77;5.00;;;;;;;-3.29;96.72;102144.78;4996019;28;20246;-82
2023/02/27 06:54:23;;;;;;;8.47;5.20;;;;;;;-3.25;96.87;102154.41;4996406;28;20995;-83
2023/02/27 06:56:50;;;;;;;6.60;4.63;;;;;;;-3.22;96.41;102162.25;4996052;28;20235;-83
2023/02/27 06:59:17;;;;;;;6.60;4.80;;;;;;;-3.18;96.80;102158.84;4995728;28;20238;-82
2023/02/27 07:01:43;;;;;;;7.90;4.90;;;;;;;-3.15;96.45;102157.19;4996288;28;20200;-83
2023/02/27 07:04:13;;;;;;;7.10;4.70;;;;;;;-3.11;96.97;102154.63;4995857;28;20211;-83
2023/02/27 07:06:42;;;;;;;7.53;4.77;;;;;;;-3.08;96.77;102160.78;4996744;28;20237;-84
2023/02/27 07:09:08;;;;;;;10.33;5.40;;;;;;;-3.06;97.09;102146.03;4995542;28;20222;-84
2023/02/27 07:11:37;;;;;;;6.67;4.87;;;;;;;-3.01;96.85;102165.22;4996070;28;20618;-85
2023/02/27 07:14:04;;;;;;;7.53;5.07;;;;;;;-2.98;96.88;102159.19;4995530;28;20675;-84
2023/02/27 07:16:30;;;;;;;7.70;4.80;;;;;;;-2.95;96.85;102164.44;4995985;28;20204;-85
2023/02/27 07:18:57;;;;;;;8.00;5.10;;;;;;;-2.93;96.82;102163.63;4995693;28;20228;-85
2023/02/27 07:21:24;;;;;;;9.57;6.10;;;;;;;-2.89;97.02;102162.81;4995454;28;20618;-83
2023/02/27 07:23:51;;;;;;;9.20;6.70;;;;;;;-2.87;97.21;102166.34;4996173;28;20207;-84
2023/02/27 07:26:18;;;;;;;9.93;7.27;;;;;;;-2.82;96.78;102172.47;4996030;28;20215;-83
2023/02/27 07:28:44;;;;;;;10.50;6.57;;;;;;;-2.78;96.98;102164.72;4995784;28;20671;-84
2023/02/27 07:31:11;;;;;;;10.80;6.07;;;;;;;-2.75;97.25;102163.03;4995927;28;20211;-84
2023/02/27 07:33:37;;;;;;;6.27;4.97;;;;;;;-2.72;97.34;102175.25;4995469;28;20214;-83
2023/02/27 07:36:04;;;;;;;7.00;4.80;;;;;;;-2.68;96.88;102164.84;4995645;28;20211;-83
2023/02/27 07:38:31;;;;;;;9.80;5.23;;;;;;;-2.64;96.89;102174.50;4994983;28;20232;-83
2023/02/27 07:40:59;;;;;;;8.77;5.30;;;;;;;-2.62;97.13;102170.19;4995480;28;20213;-83
2023/02/27 07:43:25;;;;;;;8.60;5.63;;;;;;;-2.55;97.33;102181.59;4996012;28;20656;-84
2023/02/27 07:45:52;;;;;;;6.97;5.10;;;;;;;-2.49;97.62;102179.03;4995124;28;20196;-83
2023/02/27 07:48:19;;;;;;;8.67;4.87;;;;;;;-2.42;97.55;102173.06;4995166;28;20226;-83
2023/02/27 07:50:45;;;;;;;8.50;5.53;;;;;;;-2.34;97.75;102176.69;4994495;28;20211;-83
2023/02/27 07:53:12;;;;;;;6.90;5.27;;;;;;;-2.28;98.14;102168.91;4995186;28;20207;-85
2023/02/27 07:55:39;;;;;;;10.10;5.47;;;;;;;-2.19;97.98;102168.19;4994205;28;20196;-83
2023/02/27 07:58:07;;;;;;;11.23;5.50;;;;;;;-2.12;97.69;102172.59;4993896;28;20618;-84
2023/02/27 08:00:33;;;;;;;6.67;4.83;;;;;;;-2.04;97.78;102170.09;5001250;28;20210;-83
2023/02/27 08:03:00;;;;;;;8.43;5.30;;;;;;;-1.95;97.75;102165.84;5013678;28;20215;-83
2023/02/27 08:05:26;;;;;;;8.23;5.13;;;;;;;-1.86;98.08;102179.03;5014937;28;20210;-84
2023/02/27 08:07:53;;;;;;;7.37;5.40;;;;;;;-1.79;98.04;102185.19;5015750;28;20223;-83
2023/02/27 08:10:20;;;;;;;10.20;5.47;;;;;;;-1.75;97.89;102187.84;5015079;28;20594;-84
2023/02/27 08:12:46;;;;;;;7.63;5.30;;;;;;;-1.71;97.31;102183.56;5014659;28;20234;-83
2023/02/27 08:15:14;;;;;;;8.93;5.77;;;;;;;-1.69;97.38;102189.66;5016206;28;20206;-84
2023/02/27 08:17:41;;;;;;;7.03;5.20;;;;;;;-1.67;97.14;102192.31;5016552;28;20226;-83
2023/02/27 08:20:10;;;;;;;9.50;5.67;;;;;;;-1.66;96.56;102199.28;5015736;28;20206;-82
2023/02/27 08:22:37;;;;;;;7.83;5.23;;;;;;;-1.66;96.33;102200.16;5016135;28;20235;-82
2023/02/27 08:25:05;;;;;;;6.57;4.97;;;;;;;-1.63;96.00;102200.19;5016944;28;20222;-84
2023/02/27 08:27:32;;;;;;;6.70;5.10;;;;;;;-1.62;95.90;102207.19;5016111;28;20259;-83
2023/02/27 08:29:59;;;;;;;7.47;5.53;;;;;;;-1.58;96.02;102208.94;5014405;28;20213;-83
2023/02/27 08:32:27;;;;;;;12.43;7.63;;;;;;;-1.52;95.60;102214.25;5014980;28;20562;-85
2023/02/27 08:34:54;;;;;;;9.90;6.30;;;;;;;-1.37;96.27;102223.09;5014841;28;20318;-82
2023/02/27 08:37:20;;;;;;;10.23;6.40;;;;;;;-1.20;97.03;102237.22;5003597;28;20255;-82
2023/02/27 08:39:47;;;;;;;12.67;6.27;;;;;;;-1.03;97.40;102219.97;5001578;28;20235;-82
2023/02/27 08:42:14;;;;;;;7.67;6.43;;;;;;;-0.85;97.34;102217.50;4984905;28;20211;-83
2023/02/27 08:44:41;;;;;;;9.73;5.77;;;;;;;-0.69;97.19;102218.50;5005643;28;20227;-84
2023/02/27 08:47:08;;;;;;;13.30;5.97;;;;;;;-0.57;97.12;102210.75;4997781;28;20247;-82
2023/02/27 08:49:35;;;;;;;9.67;6.03;;;;;;;-0.43;96.42;102218.72;4988668;28;20200;-83
2023/02/27 08:52:02;;;;;;;8.23;5.37;;;;;;;-0.30;96.12;102220.53;4996262;28;20601;-82
2023/02/27 08:54:29;;;;;;;12.20;5.77;;;;;;;-0.19;95.83;102213.63;4997405;28;20628;-84
2023/02/27 08:56:56;;;;;;;9.57;5.63;;;;;;;-0.05;95.31;102221.56;5003777;28;20223;-83
2023/02/27 08:59:22;;;;;;;6.80;4.93;;;;;;;0.06;95.00;102225.09;5005284;28;20237;-83
2023/02/27 09:01:49;;;;;;;9.37;5.27;;;;;;;0.17;94.43;102227.78;4998605;28;20251;-82
2023/02/27 09:04:16;;;;;;;10.37;5.67;;;;;;;0.25;93.81;102231.28;4996164;28;20269;-82
2023/02/27 09:06:43;;;;;;;9.77;5.40;;;;;;;0.34;92.95;102226.09;5009554;28;20219;-83
2023/02/27 09:09:10;;;;;;;8.07;5.33;;;;;;;0.43;92.73;102227.88;4981211;28;20716;-84
2023/02/27 09:11:37;;;;;;;8.03;5.53;;;;;;;0.53;92.28;102227.94;4986189;28;20215;-82
2023/02/27 09:14:04;;;;;;;10.73;5.80;;;;;;;0.62;91.75;102227.94;4979914;28;20216;-83
2023/02/27 09:16:30;;;;;;;6.47;4.47;;;;;;;0.68;90.67;102233.19;4983454;28;20210;-82
2023/02/27 09:18:57;;;;;;;10.13;5.13;;;;;;;0.70;89.55;102235.84;5000130;28;20731;-83
2023/02/27 09:21:24;;;;;;;6.57;5.30;;;;;;;0.72;89.14;102225.34;5016918;28;20211;-83
2023/02/27 09:23:52;;;;;;;10.53;5.70;;;;;;;0.74;88.79;102223.56;5013904;28;20216;-84
2023/02/27 09:26:18;;;;;;;7.90;5.50;;;;;;;0.74;87.87;102226.19;4982047;28;20308;-83
2023/02/27 09:28:45;;;;;;;7.83;5.43;;;;;;;0.76;87.35;102232.31;4979582;28;20571;-84
2023/02/27 09:31:12;;;;;;;11.00;5.53;;;;;;;0.79;86.85;102233.22;5002550;28;20245;-83
2023/02/27 09:33:38;;;;;;;8.73;5.33;;;;;;;0.85;86.77;102224.50;5012222;28;20214;-84
2023/02/27 09:36:06;;;;;;;9.60;5.50;;;;;;;0.93;86.44;102227.97;4997525;28;20608;-84
2023/02/27 09:38:33;;;;;;;8.90;5.70;;;;;;;1.06;86.69;102227.16;4988967;28;20235;-82
2023/02/27 09:41:02;;;;;;;8.37;4.53;;;;;;;1.17;86.14;102224.53;5002244;28;20200;-83
2023/02/27 09:43:39;;;;;;;7.10;5.20;;;;;;;1.28;85.82;102226.25;5017394;28;20210;-84
2023/02/27 09:46:09;;;;;;;7.93;5.07;;;;;;;1.39;85.22;102231.53;5008356;28;20203;-83
2023/02/27 09:48:42;;;;;;;7.23;5.30;;;;;;;1.50;85.48;102221.88;4999737;28;20231;-83
2023/02/27 09:51:09;;;;;;;7.23;4.70;;;;;;;1.60;84.87;102228.88;5013549;28;20206;-82
2023/02/27 09:53:38;;;;;;;9.17;4.43;;;;;;;1.64;83.96;102221.84;4994083;28;20215;-82
2023/02/27 09:56:09;;;;;;;8.47;5.20;;;;;;;1.69;83.18;102218.34;4996914;28;20207;-83
2023/02/27 09:58:45;;;;;;;9.83;5.33;;;;;;;1.78;83.01;102217.47;5001423;28;20231;-83
2023/02/27 10:01:19;;;;;;;5.87;4.20;;;;;;;1.89;83.48;102212.19;5003215;28;20199;-84
2023/02/27 10:03:59;;;;;;;6.93;4.10;;;;;;;1.99;83.18;102217.38;4985370;28;20251;-83
2023/02/27 10:06:33;;;;;;;9.30;4.90;;;;;;;2.12;82.74;102223.50;4984568;28;20219;-83
2023/02/27 10:09:13;;;;;;;8.47;4.70;;;;;;;2.20;81.76;102220.81;4990433;28;20197;-83
2023/02/27 10:11:51;;;;;;;7.93;4.23;;;;;;;2.26;80.88;102219.06;5000156;28;20179;-82
2023/02/27 10:14:30;;;;;;;5.53;3.97;;;;;;;2.36;81.26;102204.97;4998900;28;20203;-83
2023/02/27 10:16:59;;;;;;;8.60;4.23;;;;;;;2.48;80.63;102209.31;4998735;28;20570;-83
2023/02/27 10:19:31;;;;;;;6.93;4.23;;;;;;;2.58;80.54;102211.00;4999342;28;20246;-83
2023/02/27 10:22:03;;;;;;;6.80;3.87;;;;;;;2.64;79.14;102211.00;4998845;28;20192;-83
2023/02/27 10:24:34;;;;;;;6.80;3.60;;;;;;;2.73;79.16;102208.28;5004274;28;20210;-83
2023/02/27 10:27:04;;;;;;;6.60;4.20;;;;;;;2.80;78.48;102203.88;5007279;28;20715;-83
2023/02/27 10:29:33;;;;;;;7.13;3.00;;;;;;;2.85;78.15;102202.09;5001095;28;20668;-83
2023/02/27 10:32:03;;;;;;;8.03;3.60;;;;;;;2.92;77.73;102200.28;5001024;28;20287;-84
2023/02/27 10:34:31;;;;;;;6.03;3.40;;;;;;;2.99;76.67;102208.13;4996895;28;20270;-85
2023/02/27 10:37:00;;;;;;;3.73;2.67;;;;;;;3.08;76.98;102208.03;5005874;28;20223;-83
2023/02/27 10:39:28;;;;;;;6.10;2.97;;;;;;;3.14;76.12;102215.03;5004481;28;20224;-83
2023/02/27 10:41:58;;;;;;;4.37;2.20;;;;;;;3.21;74.77;102218.50;4997297;28;20200;-84
2023/02/27 10:44:26;;;;;;;4.33;2.87;;;;;;;3.27;74.60;102215.78;5006075;28;20652;-84
2023/02/27 10:46:52;;;;;;;9.47;3.20;;;;;;;3.34;74.18;102213.09;5005841;28;20230;-85
2023/02/27 10:49:20;;;;;;;4.20;2.20;;;;;;;3.39;73.32;102211.31;5009619;28;20210;-83
2023/02/27 10:52:04;;;;;;;4.20;2.60;;;;;;;3.43;73.28;102217.41;5018326;28;20215;-84
2023/02/27 10:54:31;;;;;;;4.13;2.00;;;;;;;3.41;72.16;102220.03;5000399;28;20196;-83
2023/02/27 10:57:00;;;;;;;4.27;2.07;;;;;;;3.39;71.75;102216.59;4989034;28;20228;-83
2023/02/27 10:59:31;;;;;;;5.77;2.40;;;;;;;3.39;71.54;102211.31;4991047;28;20242;-83
2023/02/27 11:02:00;;;;;;;2.90;1.77;;;;;;;3.43;72.22;102215.63;5001990;28;20227;-83
2023/02/27 11:04:31;;;;;;;5.57;1.80;;;;;;;3.46;71.30;102212.13;5000145;28;20208;-82
2023/02/27 11:06:58;;;;;;;2.50;1.97;;;;;;;3.49;71.97;102212.09;4989611;28;20343;-82
2023/02/27 11:09:28;;;;;;;2.47;1.20;;;;;;;3.52;71.36;102213.81;4989330;28;20207;-82
2023/02/27 11:11:58;;;;;;;4.80;1.70;;;;;;;3.52;70.37;102219.09;5001070;28;20690;-84
2023/02/27 11:14:30;;;;;;;3.37;1.83;;;;;;;3.54;70.78;102212.94;4995082;28;20208;-81
2023/02/27 11:16:58;;;;;;;6.13;1.80;;;;;;;3.59;70.93;102213.72;4997566;28;20579;-81
2023/02/27 11:19:30;;;;;;;4.43;2.40;;;;;;;3.66;71.14;102209.28;5004579;28;20237;-82
2023/02/27 11:22:07;;;;;;;4.20;1.77;;;;;;;3.75;71.26;102203.94;4994688;28;20204;-81
2023/02/27 11:24:34;;;;;;;3.87;1.33;;;;;;;3.82;70.87;102201.22;4990830;28;20667;-81
2023/02/27 11:27:04;;;;;;;4.10;1.30;;;;;;;3.90;71.10;102198.50;4994717;28;20222;-81
2023/02/27 11:29:34;;;;;;;3.73;1.20;;;;;;;3.91;70.53;102189.72;5006238;28;20212;-81
2023/02/27 11:32:04;;;;;;;4.37;1.57;;;;;;;3.93;69.47;102194.97;4993244;28;20204;-81
2023/02/27 11:34:35;;;;;;;6.23;2.03;;;;;;;3.92;69.05;102191.47;4998661;28;20725;-82
2023/02/27 11:37:05;;;;;;;8.20;2.50;;;;;;;3.86;68.60;102191.50;4993669;28;20239;-81
2023/02/27 11:39:36;;;;;;;2.03;1.40;;;;;;;3.84;69.17;102185.38;5001987;28;20783;-83
2023/02/27 11:42:14;;;;;;;2.80;1.90;;;;;;;3.87;69.08;102181.84;5001389;28;20565;-81